createdAt,value
2022-11-07T00:01:01.388Z,13.19
2022-11-07T00:03:33.305Z,13.19
2022-11-07T00:06:06.015Z,13.18
2022-11-07T00:08:38.003Z,13.17
2022-11-07T00:11:10.151Z,13.16
2022-11-07T00:13:42.165Z,13.13
2022-11-07T00:16:14.069Z,13.13
2022-11-07T00:18:45.959Z,13.11
2022-11-07T00:21:18.524Z,13.12
2022-11-07T00:23:50.404Z,13.12
2022-11-07T00:26:22.384Z,13.10
2022-11-07T00:28:54.215Z,13.06
2022-11-07T00:31:26.362Z,13.09
2022-11-07T00:33:58.548Z,13.09
2022-11-07T00:36:30.455Z,13.08
2022-11-07T00:39:02.781Z,13.05
2022-11-07T00:41:34.660Z,13.07
2022-11-07T00:44:07.104Z,12.86
2022-11-07T00:46:38.982Z,13.04
2022-11-07T00:49:11.105Z,13.05
2022-11-07T00:51:43.090Z,13.03
2022-11-07T00:54:14.979Z,13.02
2022-11-07T00:56:46.877Z,13.00
2022-11-07T00:59:18.854Z,13.02
2022-11-07T01:01:50.905Z,13.01
2022-11-07T01:04:41.575Z,12.99
2022-11-07T01:07:13.497Z,12.96
2022-11-07T01:09:45.359Z,12.99
2022-11-07T01:12:17.282Z,12.96
2022-11-07T01:14:49.118Z,12.99
2022-11-07T01:17:21.016Z,13.01
2022-11-07T01:19:52.908Z,13.01
2022-11-07T01:22:24.844Z,13.01
2022-11-07T01:24:56.703Z,13.00
2022-11-07T01:27:28.633Z,13.02
2022-11-07T01:30:00.540Z,13.03
2022-11-07T01:32:32.440Z,13.06
2022-11-07T01:35:05.079Z,13.10
2022-11-07T01:37:37.010Z,13.10
2022-11-07T01:40:09.949Z,13.12
2022-11-07T01:42:41.828Z,13.13
2022-11-07T01:45:25.116Z,13.16
2022-11-07T01:48:01.748Z,13.15
2022-11-07T01:50:33.764Z,13.17
2022-11-07T01:53:06.018Z,13.21
2022-11-07T01:55:38.008Z,13.16
2022-11-07T01:58:10.363Z,13.17
2022-11-07T02:00:42.270Z,13.23
2022-11-07T02:03:20.494Z,13.14
2022-11-07T02:06:03.516Z,13.21
2022-11-07T02:08:39.062Z,13.20
2022-11-07T02:11:12.339Z,13.22
2022-11-07T02:13:44.358Z,13.22
2022-11-07T02:16:16.920Z,13.22
2022-11-07T02:18:48.971Z,13.26
2022-11-07T02:22:02.031Z,13.20
2022-11-07T02:24:37.551Z,13.17
2022-11-07T02:27:20.166Z,13.22
2022-11-07T02:29:59.156Z,13.22
2022-11-07T02:32:32.034Z,13.19
2022-11-07T02:35:34.856Z,13.19
2022-11-07T02:38:25.513Z,13.12
2022-11-07T02:41:19.805Z,13.12
2022-11-07T02:44:03.959Z,13.15
2022-11-07T02:46:36.555Z,13.17
2022-11-07T02:49:08.797Z,13.18
2022-11-07T02:51:40.738Z,13.19
2022-11-07T02:54:12.645Z,13.19
2022-11-07T02:56:44.592Z,13.21
2022-11-07T02:59:16.497Z,13.24
2022-11-07T03:01:48.545Z,13.21
2022-11-07T03:04:20.496Z,13.19
2022-11-07T03:06:52.377Z,13.20
2022-11-07T03:09:24.256Z,13.20
2022-11-07T03:11:56.197Z,13.21
2022-11-07T03:14:28.127Z,13.20
2022-11-07T03:17:00.576Z,13.22
2022-11-07T03:19:32.464Z,13.09
2022-11-07T03:22:04.602Z,13.24
2022-11-07T03:24:36.533Z,13.27
2022-11-07T03:27:08.424Z,13.24
2022-11-07T03:29:40.322Z,13.25
2022-11-07T03:32:12.207Z,13.27
2022-11-07T03:34:44.133Z,13.25
2022-11-07T03:37:16.095Z,13.29
2022-11-07T03:39:48.062Z,13.27
2022-11-07T03:42:19.968Z,13.29
2022-11-07T03:44:51.830Z,13.31
2022-11-07T03:47:23.690Z,13.32
2022-11-07T03:49:55.527Z,13.35
2022-11-07T03:52:27.468Z,13.38
2022-11-07T03:54:59.432Z,13.40
2022-11-07T03:57:31.319Z,13.42
2022-11-07T04:00:05.746Z,13.44
2022-11-07T04:02:37.850Z,13.46
2022-11-07T04:05:11.493Z,13.46
2022-11-07T04:07:43.473Z,13.46
2022-11-07T04:10:15.462Z,13.44
2022-11-07T04:13:05.763Z,13.45
2022-11-07T04:15:58.991Z,13.43
2022-11-07T04:18:30.923Z,13.43
2022-11-07T04:21:02.888Z,13.45
2022-11-07T04:23:34.831Z,13.43
2022-11-07T04:26:25.769Z,13.45
2022-11-07T04:28:57.739Z,13.39
2022-11-07T04:31:29.760Z,13.40
2022-11-07T04:34:01.613Z,13.38
2022-11-07T04:36:36.247Z,13.42
2022-11-07T04:39:08.129Z,13.39
2022-11-07T04:41:40.042Z,13.39
2022-11-07T04:44:13.512Z,13.38
2022-11-07T04:46:45.943Z,13.39
2022-11-07T04:49:18.116Z,13.38
2022-11-07T04:51:50.953Z,13.41
2022-11-07T04:54:22.956Z,13.41
2022-11-07T04:56:54.866Z,13.39
2022-11-07T04:59:26.774Z,13.39
2022-11-07T05:01:58.765Z,13.40
2022-11-07T05:04:30.786Z,13.44
2022-11-07T05:07:02.750Z,13.41
2022-11-07T05:09:34.802Z,13.44
2022-11-07T05:12:06.776Z,13.44
2022-11-07T05:14:38.670Z,13.44
2022-11-07T05:17:15.402Z,13.41
2022-11-07T05:19:47.887Z,13.43
2022-11-07T05:22:38.199Z,13.39
2022-11-07T05:25:10.224Z,13.42
2022-11-07T05:27:42.064Z,13.43
2022-11-07T05:30:14.184Z,13.43
2022-11-07T05:32:46.082Z,13.42
2022-11-07T05:35:18.031Z,13.43
2022-11-07T05:37:50.018Z,13.42
2022-11-07T05:40:22.332Z,13.43
2022-11-07T05:43:04.477Z,13.47
2022-11-07T05:45:37.967Z,13.45
2022-11-07T05:48:14.069Z,13.51
2022-11-07T05:50:45.964Z,13.46
2022-11-07T05:53:20.863Z,13.53
2022-11-07T05:55:53.047Z,13.54
2022-11-07T05:58:25.184Z,13.53
2022-11-07T06:01:05.351Z,13.56
2022-11-07T06:03:37.240Z,13.57
2022-11-07T06:06:09.254Z,13.57
2022-11-07T06:08:41.103Z,13.57
2022-11-07T06:11:13.050Z,13.53
2022-11-07T06:13:44.931Z,13.59
2022-11-07T06:16:16.901Z,13.62
2022-11-07T06:18:49.035Z,13.63
2022-11-07T06:21:20.962Z,13.63
2022-11-07T06:23:52.898Z,13.64
2022-11-07T06:26:25.260Z,13.63
2022-11-07T06:28:57.168Z,13.70
2022-11-07T06:31:29.066Z,13.73
2022-11-07T06:34:00.929Z,13.73
2022-11-07T06:36:32.833Z,13.75
2022-11-07T06:39:04.801Z,13.75
2022-11-07T06:41:36.731Z,13.75
2022-11-07T06:44:08.583Z,13.79
2022-11-07T06:46:40.881Z,14.03
2022-11-07T06:49:14.699Z,13.86
2022-11-07T06:51:48.100Z,13.85
2022-11-07T06:54:20.212Z,13.83
2022-11-07T06:56:52.067Z,13.88
2022-11-07T06:59:23.968Z,13.89
2022-11-07T07:01:55.941Z,13.90
2022-11-07T07:04:28.144Z,13.89
2022-11-07T07:07:00.049Z,13.93
2022-11-07T07:09:31.990Z,13.93
2022-11-07T07:12:04.250Z,13.93
2022-11-07T07:14:36.164Z,13.96
2022-11-07T07:17:08.118Z,13.97
2022-11-07T07:19:39.964Z,13.99
2022-11-07T07:22:13.962Z,14.01
2022-11-07T07:24:48.096Z,14.04
2022-11-07T07:27:20.502Z,14.04
2022-11-07T07:29:53.514Z,14.08
2022-11-07T07:32:25.760Z,14.07
2022-11-07T07:34:57.779Z,14.10
2022-11-07T07:37:30.409Z,14.06
2022-11-07T07:40:02.568Z,14.13
2022-11-07T07:42:34.490Z,14.15
2022-11-07T07:45:07.050Z,14.19
2022-11-07T07:47:40.065Z,14.18
2022-11-07T07:50:13.292Z,14.20
2022-11-07T07:52:45.212Z,14.23
2022-11-07T07:55:17.137Z,14.28
2022-11-07T07:57:49.024Z,14.32
2022-11-07T08:00:20.995Z,14.34
2022-11-07T08:03:02.394Z,14.38
2022-11-07T08:05:34.570Z,14.46
2022-11-07T08:08:08.614Z,14.51
2022-11-07T08:10:42.534Z,14.59
2022-11-07T08:13:15.382Z,14.63
2022-11-07T08:15:47.694Z,14.67
2022-11-07T08:18:21.964Z,14.77
2022-11-07T08:20:56.328Z,14.85
2022-11-07T08:23:28.583Z,14.93
2022-11-07T08:26:02.403Z,14.91
2022-11-07T08:28:36.077Z,14.93
2022-11-07T08:31:12.134Z,14.83
2022-11-07T08:33:44.112Z,14.83
2022-11-07T08:36:16.047Z,14.86
2022-11-07T08:38:48.077Z,14.86
2022-11-07T08:41:22.304Z,14.88
2022-11-07T08:43:54.480Z,14.94
2022-11-07T08:46:26.389Z,14.94
2022-11-07T08:48:58.316Z,15.02
2022-11-07T08:51:30.229Z,15.05
2022-11-07T08:54:02.277Z,15.08
2022-11-07T08:56:34.752Z,15.05
2022-11-07T08:59:06.723Z,15.06
2022-11-07T09:01:55.965Z,15.05
2022-11-07T09:04:30.574Z,15.05
2022-11-07T09:07:02.581Z,15.04
2022-11-07T09:09:34.449Z,15.02
2022-11-07T09:12:06.957Z,14.97
2022-11-07T09:14:38.910Z,14.97
2022-11-07T09:17:10.817Z,14.98
2022-11-07T09:19:42.767Z,15.00
2022-11-07T09:22:14.998Z,14.97
2022-11-07T09:24:46.857Z,15.02
2022-11-07T09:27:18.784Z,14.97
2022-11-07T09:29:50.770Z,15.02
2022-11-07T09:32:43.463Z,15.12
2022-11-07T09:35:15.353Z,15.08
2022-11-07T09:37:47.223Z,15.15
2022-11-07T09:40:54.727Z,15.12
2022-11-07T09:43:53.122Z,15.18
2022-11-07T09:46:50.451Z,15.14
2022-11-07T09:49:23.895Z,15.19
2022-11-07T09:52:15.577Z,15.14
2022-11-07T09:54:58.189Z,15.21
2022-11-07T09:57:35.785Z,15.25
2022-11-07T10:00:20.442Z,15.24
2022-11-07T10:02:58.775Z,15.27
2022-11-07T10:06:01.614Z,15.28
2022-11-07T10:08:43.264Z,15.34
2022-11-07T10:12:00.545Z,15.40
2022-11-07T10:15:01.474Z,15.47
2022-11-07T10:17:49.554Z,15.53
2022-11-07T10:20:39.308Z,15.58
2022-11-07T10:23:58.426Z,15.60
2022-11-07T10:26:31.726Z,15.70
2022-11-07T10:29:15.695Z,15.82
2022-11-07T10:32:26.525Z,15.99
2022-11-07T10:35:12.513Z,16.00
2022-11-07T10:37:53.465Z,15.96
2022-11-07T10:40:33.598Z,16.00
2022-11-07T10:43:22.595Z,16.08
2022-11-07T10:45:56.543Z,16.16
2022-11-07T10:48:29.619Z,16.22
2022-11-07T10:51:01.683Z,16.18
2022-11-07T10:53:44.947Z,16.20
2022-11-07T10:56:19.622Z,16.13
2022-11-07T10:58:51.577Z,16.16
2022-11-07T11:01:27.264Z,16.13
2022-11-07T11:03:59.333Z,16.07
2022-11-07T11:06:32.793Z,16.09
2022-11-07T11:09:18.947Z,16.12
2022-11-07T11:11:52.168Z,16.06
2022-11-07T11:14:24.354Z,16.10
2022-11-07T11:16:57.132Z,16.14
2022-11-07T11:19:41.518Z,16.04
2022-11-07T11:22:19.522Z,16.15
2022-11-07T11:25:18.048Z,16.11
2022-11-07T11:28:04.219Z,16.14
2022-11-07T11:30:37.183Z,16.14
2022-11-07T11:33:25.415Z,16.21
2022-11-07T11:36:30.661Z,16.23
2022-11-07T11:39:13.016Z,16.29
2022-11-07T11:41:57.540Z,16.40
2022-11-07T11:44:43.688Z,16.40
2022-11-07T11:47:42.969Z,16.46
2022-11-07T11:50:28.753Z,16.56
2022-11-07T11:53:01.056Z,16.66
2022-11-07T11:55:56.702Z,16.71
2022-11-07T11:59:07.142Z,16.75
2022-11-07T12:02:30.102Z,16.64
2022-11-07T12:05:27.236Z,16.64
2022-11-07T12:08:24.421Z,16.65
2022-11-07T12:11:20.665Z,16.60
2022-11-07T12:14:13.361Z,16.59
2022-11-07T12:17:20.611Z,16.57
2022-11-07T12:20:19.008Z,16.66
2022-11-07T12:23:37.442Z,16.63
2022-11-07T12:26:26.899Z,16.72
2022-11-07T12:29:17.087Z,16.76
2022-11-07T12:32:19.743Z,16.69
2022-11-07T12:35:06.116Z,16.76
2022-11-07T12:38:25.723Z,16.78
2022-11-07T12:41:26.495Z,16.82
2022-11-07T12:45:01.721Z,16.90
2022-11-07T12:48:20.958Z,16.95
2022-11-07T12:51:15.531Z,17.02
2022-11-07T12:54:00.863Z,17.01
2022-11-07T12:56:37.451Z,16.90
2022-11-07T12:59:31.196Z,16.91
2022-11-07T13:02:17.650Z,16.95
2022-11-07T13:05:34.070Z,16.89
2022-11-07T13:09:05.255Z,16.88
2022-11-07T13:12:10.883Z,16.93
2022-11-07T13:14:45.460Z,16.90
2022-11-07T13:17:20.495Z,16.94
2022-11-07T13:20:06.367Z,16.90
2022-11-07T13:22:41.052Z,16.92
2022-11-07T13:25:17.055Z,16.87
2022-11-07T13:27:55.535Z,16.83
2022-11-07T13:30:30.180Z,16.84
2022-11-07T13:33:04.208Z,16.81
2022-11-07T13:35:38.688Z,16.79
2022-11-07T13:38:19.227Z,16.73
2022-11-07T13:40:58.621Z,16.80
2022-11-07T13:43:36.284Z,16.80
2022-11-07T13:46:41.744Z,16.79
2022-11-07T13:49:32.205Z,16.82
2022-11-07T13:52:14.337Z,16.86
2022-11-07T13:55:09.054Z,16.86
2022-11-07T13:57:49.365Z,16.90
2022-11-07T14:00:21.680Z,16.89
2022-11-07T14:02:56.476Z,16.88
2022-11-07T14:05:35.074Z,16.90
2022-11-07T14:08:21.088Z,16.94
2022-11-07T14:10:54.127Z,16.97
2022-11-07T14:13:41.463Z,16.97
2022-11-07T14:16:25.565Z,16.92
2022-11-07T14:19:02.534Z,16.95
2022-11-07T14:21:37.421Z,16.95
2022-11-07T14:24:29.570Z,16.91
2022-11-07T14:27:23.162Z,16.86
2022-11-07T14:30:00.409Z,16.91
2022-11-07T14:32:32.451Z,16.92
2022-11-07T14:35:08.703Z,16.93
2022-11-07T14:37:40.672Z,16.92
2022-11-07T14:40:12.780Z,16.94
2022-11-07T14:42:45.764Z,16.95
2022-11-07T14:45:46.659Z,16.94
2022-11-07T14:48:18.999Z,16.93
2022-11-07T14:50:51.429Z,16.98
2022-11-07T14:53:47.748Z,16.94
2022-11-07T14:56:28.626Z,16.94
2022-11-07T14:59:00.740Z,16.94
2022-11-07T15:01:34.526Z,16.95
2022-11-07T15:04:30.023Z,16.92
2022-11-07T15:07:22.911Z,16.93
2022-11-07T15:10:13.622Z,16.90
2022-11-07T15:12:53.200Z,16.90
2022-11-07T15:15:37.083Z,16.84
2022-11-07T15:18:27.428Z,16.84
2022-11-07T15:21:01.820Z,16.88
2022-11-07T15:23:35.794Z,16.86
2022-11-07T15:26:07.658Z,16.85
2022-11-07T15:28:42.372Z,16.83
2022-11-07T15:31:28.723Z,16.80
2022-11-07T15:34:01.516Z,16.82
2022-11-07T15:36:36.213Z,16.81
2022-11-07T15:39:17.035Z,16.77
2022-11-07T15:41:48.901Z,16.81
2022-11-07T15:44:21.949Z,16.79
2022-11-07T15:46:53.955Z,16.80
2022-11-07T15:49:28.361Z,16.80
2022-11-07T15:52:01.565Z,16.78
2022-11-07T15:54:33.416Z,16.79
2022-11-07T15:57:07.965Z,16.68
2022-11-07T15:59:39.982Z,16.73
2022-11-07T16:02:17.130Z,16.74
2022-11-07T16:04:49.123Z,16.74
2022-11-07T16:07:21.239Z,16.72
2022-11-07T16:09:53.171Z,16.71
2022-11-07T16:12:25.139Z,16.68
2022-11-07T16:14:59.328Z,17.06
2022-11-07T16:17:32.320Z,16.79
2022-11-07T16:20:04.921Z,16.72
2022-11-07T16:22:36.822Z,16.73
2022-11-07T16:25:20.324Z,16.66
2022-11-07T16:28:00.402Z,16.72
2022-11-07T16:30:33.758Z,16.74
2022-11-07T16:33:05.788Z,16.76
2022-11-07T16:35:37.779Z,16.75
2022-11-07T16:38:15.926Z,16.71
2022-11-07T16:40:48.298Z,16.70
2022-11-07T16:43:21.234Z,16.72
2022-11-07T16:45:56.651Z,16.73
2022-11-07T16:48:30.454Z,16.75
2022-11-07T16:51:03.392Z,16.72
2022-11-07T16:53:35.331Z,16.70
2022-11-07T16:56:22.860Z,16.72
2022-11-07T16:58:55.308Z,16.68
2022-11-07T17:01:28.804Z,16.69
2022-11-07T17:04:00.770Z,16.69
2022-11-07T17:06:35.651Z,17.05
2022-11-07T17:09:13.273Z,16.79
2022-11-07T17:11:45.576Z,16.72
2022-11-07T17:14:17.656Z,16.69
2022-11-07T17:16:49.664Z,16.73
2022-11-07T17:19:24.182Z,16.76
2022-11-07T17:21:56.056Z,16.76
2022-11-07T17:24:27.995Z,16.78
2022-11-07T17:26:59.920Z,16.79
2022-11-07T17:29:31.803Z,16.80
2022-11-07T17:32:03.812Z,16.78
2022-11-07T17:34:35.786Z,16.78
2022-11-07T17:37:15.345Z,16.67
2022-11-07T17:39:48.311Z,16.77
2022-11-07T17:42:20.278Z,16.70
2022-11-07T17:44:52.193Z,16.77
2022-11-07T17:47:36.183Z,16.75
2022-11-07T17:50:14.753Z,16.76
2022-11-07T17:52:47.514Z,16.77
2022-11-07T17:55:20.628Z,16.76
2022-11-07T17:57:52.614Z,16.76
2022-11-07T18:00:27.174Z,16.71
2022-11-07T18:02:59.187Z,16.81
2022-11-07T18:05:34.655Z,16.81
2022-11-07T18:08:07.379Z,16.80
2022-11-07T18:10:43.932Z,16.79
2022-11-07T18:13:15.855Z,16.77
2022-11-07T18:15:47.743Z,16.75
2022-11-07T18:18:20.143Z,16.70
2022-11-07T18:20:52.339Z,16.68
2022-11-07T18:23:24.210Z,16.65
2022-11-07T18:26:33.212Z,16.58
2022-11-07T18:29:12.663Z,16.62
2022-11-07T18:31:47.305Z,16.58
2022-11-07T18:34:20.516Z,16.64
2022-11-07T18:36:52.438Z,16.60
2022-11-07T18:39:25.391Z,16.60
2022-11-07T18:41:57.291Z,16.56
2022-11-07T18:44:29.174Z,16.56
2022-11-07T18:47:01.253Z,16.51
2022-11-07T18:49:33.220Z,16.50
2022-11-07T18:52:05.304Z,16.48
2022-11-07T18:54:37.314Z,16.43
2022-11-07T18:57:09.223Z,16.47
2022-11-07T18:59:41.119Z,16.49
2022-11-07T19:02:13.865Z,16.47
2022-11-07T19:04:45.889Z,16.47
2022-11-07T19:07:17.782Z,16.47
2022-11-07T19:09:49.671Z,16.46
2022-11-07T19:12:21.532Z,16.48
2022-11-07T19:14:53.430Z,16.48
2022-11-07T19:17:26.679Z,16.44
2022-11-07T19:19:58.695Z,16.42
2022-11-07T19:22:32.139Z,16.34
2022-11-07T19:25:04.316Z,16.39
2022-11-07T19:27:36.284Z,16.33
2022-11-07T19:30:09.679Z,16.34
2022-11-07T19:32:42.111Z,16.30
2022-11-07T19:35:16.157Z,16.28
2022-11-07T19:37:48.138Z,16.26
2022-11-07T19:40:19.998Z,16.24
2022-11-07T19:42:52.840Z,16.23
2022-11-07T19:45:28.721Z,16.21
2022-11-07T19:48:00.637Z,16.20
2022-11-07T19:50:32.645Z,16.19
2022-11-07T19:53:05.106Z,16.16
2022-11-07T19:55:37.998Z,16.16
2022-11-07T19:58:10.029Z,16.18
2022-11-07T20:00:42.868Z,16.18
2022-11-07T20:03:15.305Z,16.17
2022-11-07T20:05:48.980Z,16.18
2022-11-07T20:08:20.845Z,16.21
2022-11-07T20:10:52.801Z,16.21
2022-11-07T20:13:25.155Z,16.19
2022-11-07T20:15:58.259Z,16.13
2022-11-07T20:18:30.165Z,16.19
2022-11-07T20:21:06.678Z,16.15
2022-11-07T20:23:40.394Z,16.16
2022-11-07T20:26:25.845Z,16.16
2022-11-07T20:28:59.130Z,16.15
2022-11-07T20:31:34.968Z,16.14
2022-11-07T20:34:10.484Z,16.10
2022-11-07T20:36:42.830Z,16.12
2022-11-07T20:39:15.193Z,16.09
2022-11-07T20:41:47.375Z,16.11
2022-11-07T20:44:19.310Z,16.14
2022-11-07T20:46:53.127Z,16.14
2022-11-07T20:49:25.104Z,16.12
2022-11-07T20:51:58.253Z,16.11
2022-11-07T20:54:30.781Z,16.11
2022-11-07T20:57:03.952Z,16.11
2022-11-07T20:59:35.946Z,16.12
2022-11-07T21:02:13.053Z,16.11
2022-11-07T21:05:11.225Z,16.11
2022-11-07T21:07:36.981Z,16.09
2022-11-07T21:10:09.570Z,16.12
2022-11-07T21:12:42.852Z,16.09
2022-11-07T21:15:14.899Z,16.13
2022-11-07T21:17:46.744Z,16.07
2022-11-07T21:20:18.730Z,16.11
2022-11-07T21:22:50.836Z,16.07
2022-11-07T21:25:23.000Z,16.06
2022-11-07T21:27:55.194Z,15.90
2022-11-07T21:30:27.110Z,16.02
2022-11-07T21:32:59.697Z,16.02
2022-11-07T21:35:33.732Z,16.03
2022-11-07T21:38:05.925Z,16.01
2022-11-07T21:40:38.666Z,16.01
2022-11-07T21:43:12.202Z,16.00
2022-11-07T21:45:44.533Z,15.98
2022-11-07T21:48:16.736Z,15.88
2022-11-07T21:50:50.396Z,15.90
2022-11-07T21:53:22.301Z,15.90
2022-11-07T21:55:54.192Z,15.88
2022-11-07T21:58:27.606Z,15.89
2022-11-07T22:01:06.320Z,15.83
2022-11-07T22:04:04.604Z,15.88
2022-11-07T22:06:37.020Z,15.85
2022-11-07T22:09:13.002Z,15.84
2022-11-07T22:11:45.141Z,15.84
2022-11-07T22:14:21.156Z,15.84
2022-11-07T22:16:55.856Z,15.80
2022-11-07T22:19:27.892Z,15.82
2022-11-07T22:21:59.861Z,15.83
2022-11-07T22:24:31.847Z,15.82
2022-11-07T22:27:03.912Z,15.79
2022-11-07T22:29:36.550Z,15.70
2022-11-07T22:32:08.438Z,15.73
2022-11-07T22:34:40.335Z,15.73
2022-11-07T22:37:12.738Z,15.72
2022-11-07T22:39:44.641Z,15.72
2022-11-07T22:42:21.015Z,15.69
2022-11-07T22:44:55.548Z,15.67
2022-11-07T22:47:27.451Z,15.67
2022-11-07T22:49:59.384Z,15.67
2022-11-07T22:52:31.266Z,15.66
2022-11-07T22:55:03.378Z,15.60
2022-11-07T22:57:35.229Z,15.55
2022-11-07T23:00:20.874Z,15.57
2022-11-07T23:02:53.840Z,15.57
2022-11-07T23:05:26.551Z,15.57
2022-11-07T23:07:58.418Z,15.55
2022-11-07T23:10:30.414Z,15.53
2022-11-07T23:13:04.692Z,15.53
2022-11-07T23:15:36.602Z,15.51
2022-11-07T23:18:08.529Z,15.48
2022-11-07T23:20:58.946Z,15.52
2022-11-07T23:23:32.034Z,15.45
2022-11-07T23:26:16.726Z,15.43
2022-11-07T23:28:49.911Z,15.41
2022-11-07T23:31:21.788Z,15.44
2022-11-07T23:33:53.707Z,15.43
2022-11-07T23:36:25.676Z,15.39
2022-11-07T23:38:57.551Z,15.41
2022-11-07T23:41:29.480Z,15.42
2022-11-07T23:44:02.084Z,15.37
2022-11-07T23:46:52.554Z,15.37
2022-11-07T23:49:43.186Z,15.27
2022-11-07T23:52:16.509Z,15.31
2022-11-07T23:55:07.407Z,15.29
2022-11-07T23:58:08.437Z,15.33
